Time;durP1;ratioP1;P1;durP2;ratioP2;P2;SDS_P1;SDS_P2;PMS_P1;PMS_P2;Temp;Humidity;BMP_temperature;BMP_pressure;BME280_temperature;BME280_humidity;BME280_pressure;Samples;Min_cycle;Max_cycle;Signal;HPM_P1;HPM_P2
2022/05/24 05:55:44;;;;;;;1.37;1.27;;;17.50;99.90;;;;;;4736475;30;20437;-84
2022/05/24 05:58:12;;;;;;;4.47;1.90;;;17.40;99.90;;;;;;4771147;30;20480;-85
2022/05/24 06:00:40;;;;;;;1.83;1.73;;;17.40;99.90;;;;;;4810354;29;20821;-85
2022/05/24 06:03:08;;;;;;;1.80;1.70;;;17.40;99.90;;;;;;4926018;28;20538;-86
2022/05/24 06:05:35;;;;;;;5.80;2.80;;;17.30;99.90;;;;;;4959107;28;20451;-86
2022/05/24 06:08:03;;;;;;;2.07;1.97;;;17.20;99.90;;;;;;4958606;29;20458;-86
2022/05/24 06:10:30;;;;;;;2.10;1.90;;;17.30;99.90;;;;;;4958278;29;20518;-85
2022/05/24 06:12:59;;;;;;;6.03;1.73;;;17.40;99.90;;;;;;4958390;28;20450;-85
2022/05/24 06:15:27;;;;;;;2.93;2.10;;;17.50;99.90;;;;;;4962613;28;20459;-86
2022/05/24 06:17:54;;;;;;;1.10;1.10;;;17.60;99.90;;;;;;4965168;29;20483;-86
2022/05/24 06:20:24;;;;;;;1.80;1.53;;;17.70;99.90;;;;;;4965343;29;20455;-85
2022/05/24 06:22:52;;;;;;;2.00;1.90;;;17.80;99.90;;;;;;4965794;28;20455;-86
2022/05/24 06:25:20;;;;;;;1.57;1.37;;;17.80;99.90;;;;;;4962717;28;20981;-84
2022/05/24 06:27:46;;;;;;;1.57;1.47;;;18.00;99.90;;;;;;4953896;28;20764;-86
2022/05/24 06:30:15;;;;;;;2.20;2.10;;;18.00;99.90;;;;;;4950741;29;20480;-84
2022/05/24 06:32:42;;;;;;;3.17;1.93;;;18.10;99.90;;;;;;4952185;29;20453;-85
2022/05/24 06:35:09;;;;;;;1.60;1.50;;;18.20;99.90;;;;;;4953268;28;20452;-84
2022/05/24 06:37:36;;;;;;;3.03;2.90;;;18.20;99.90;;;;;;4949740;28;20480;-85
2022/05/24 06:40:17;;;;;;;2.77;1.70;;;18.30;99.90;;;;;;4949955;29;20462;-87
2022/05/24 06:42:44;;;;;;;1.70;1.53;;;18.40;99.90;;;;;;4951718;29;20451;-85
2022/05/24 06:45:12;;;;;;;2.57;1.47;;;18.50;99.90;;;;;;4946476;29;20449;-85
2022/05/24 06:47:40;;;;;;;1.70;1.60;;;18.60;99.90;;;;;;4949118;28;20506;-85
2022/05/24 06:50:09;;;;;;;2.13;1.60;;;18.60;99.90;;;;;;4949937;29;20510;-84
2022/05/24 06:52:38;;;;;;;1.57;1.10;;;18.50;99.90;;;;;;4950849;29;20468;-85
2022/05/24 06:55:06;;;;;;;1.40;1.20;;;18.40;99.90;;;;;;4947947;28;20454;-84
2022/05/24 06:57:33;;;;;;;1.63;1.50;;;18.50;99.90;;;;;;4948713;29;21028;-86
2022/05/24 07:03:07;;;;;;;1.40;1.27;;;18.40;99.90;;;;;;4953885;29;20534;-86
2022/05/24 07:05:34;;;;;;;1.57;1.47;;;18.40;99.90;;;;;;4966620;28;20447;-83
2022/05/24 07:08:01;;;;;;;1.60;1.50;;;18.30;99.90;;;;;;4964258;29;20924;-81
2022/05/24 07:10:29;;;;;;;2.30;1.70;;;18.30;99.90;;;;;;4963990;28;20522;-82
2022/05/24 07:13:01;;;;;;;0.83;0.83;;;18.10;99.90;;;;;;4966403;29;20492;-81
2022/05/24 07:15:28;;;;;;;0.70;0.70;;;17.60;99.90;;;;;;4965214;28;20450;-81
2022/05/24 07:17:55;;;;;;;0.80;0.80;;;15.70;99.90;;;;;;4963051;29;20449;-81
2022/05/24 07:20:25;;;;;;;1.37;0.50;;;14.10;99.90;;;;;;4960579;28;20445;-80
2022/05/24 07:22:52;;;;;;;0.70;0.43;;;13.80;99.90;;;;;;4960031;28;20872;-80
2022/05/24 07:25:20;;;;;;;0.83;0.83;;;13.00;99.90;;;;;;4958931;28;20969;-80
2022/05/24 07:27:47;;;;;;;0.40;0.40;;;12.60;99.90;;;;;;4958398;28;20965;-80
2022/05/24 09:15:45;;;;;;;0.30;0.30;;;15.90;99.90;;;;;;4822558;29;20464;-84
2022/05/24 09:21:44;;;;;;;0.60;0.60;;;16.00;99.90;;;;;;4855501;29;20463;-86
2022/05/24 09:24:20;;;;;;;0.30;0.30;;;16.10;99.90;;;;;;4880304;29;20636;-84
2022/05/24 09:27:06;;;;;;;0.83;0.80;;;16.10;99.90;;;;;;4880826;29;20484;-85
2022/05/24 09:29:35;;;;;;;0.60;0.60;;;15.90;99.90;;;;;;4937435;28;20498;-83
2022/05/24 09:32:09;;;;;;;0.67;0.67;;;16.10;99.90;;;;;;4938106;29;20923;-86
2022/05/24 09:34:38;;;;;;;0.53;0.53;;;16.10;99.90;;;;;;4939609;29;20466;-83
2022/05/24 09:37:10;;;;;;;0.53;0.53;;;15.90;99.90;;;;;;4949728;29;20528;-83
2022/05/24 09:39:38;;;;;;;0.60;0.60;;;15.80;99.90;;;;;;4959237;28;20454;-83
2022/05/24 09:42:10;;;;;;;0.50;0.50;;;15.80;99.90;;;;;;4960242;28;20450;-83
2022/05/24 09:44:48;;;;;;;1.73;0.80;;;16.00;99.90;;;;;;4960220;28;20556;-85
2022/05/24 09:47:23;;;;;;;0.40;0.40;;;16.30;99.90;;;;;;4959468;28;20478;-85
2022/05/24 09:49:50;;;;;;;1.40;0.83;;;16.30;99.90;;;;;;4961346;28;20558;-83
2022/05/24 09:52:18;;;;;;;0.87;0.73;;;16.40;99.90;;;;;;4960028;28;20513;-85
2022/05/24 09:54:53;;;;;;;0.57;0.57;;;16.60;99.90;;;;;;4961463;28;20456;-83
2022/05/24 09:57:25;;;;;;;0.70;0.70;;;16.40;99.90;;;;;;4962595;28;20478;-83
2022/05/24 10:00:03;;;;;;;0.70;0.70;;;16.40;99.90;;;;;;4962826;28;20458;-86
2022/05/24 10:02:32;;;;;;;0.40;0.40;;;16.40;99.90;;;;;;4962873;28;20528;-86
2022/05/24 10:05:00;;;;;;;0.50;0.50;;;16.50;99.90;;;;;;4964673;28;20460;-84
2022/05/24 10:07:31;;;;;;;2.00;0.77;;;16.40;99.90;;;;;;4964412;28;20473;-84
2022/05/24 10:10:03;;;;;;;0.60;0.60;;;16.30;99.90;;;;;;4964671;28;20454;-86
2022/05/24 10:12:48;;;;;;;0.87;0.53;;;16.30;99.90;;;;;;4960733;28;20477;-86
2022/05/24 10:15:22;;;;;;;0.73;0.67;;;16.30;99.90;;;;;;4940960;29;20449;-83
2022/05/24 10:18:17;;;;;;;0.80;0.70;;;16.20;99.90;;;;;;4963242;28;20432;-84
2022/05/24 10:20:50;;;;;;;1.10;0.40;;;16.40;99.90;;;;;;4952776;29;20457;-85
2022/05/24 10:23:41;;;;;;;0.63;0.63;;;16.70;99.90;;;;;;4956807;28;20492;-85
2022/05/24 10:26:18;;;;;;;2.63;0.87;;;16.90;99.90;;;;;;4957050;29;20479;-85
2022/05/24 10:28:50;;;;;;;0.67;0.67;;;16.80;98.80;;;;;;4958638;28;20487;-84
2022/05/24 10:31:31;;;;;;;0.60;0.60;;;17.00;99.90;;;;;;4964198;28;20494;-85
2022/05/24 10:40:10;;;;;;;6.90;0.80;;;18.20;99.10;;;;;;4925031;29;20890;-84
2022/05/24 10:42:53;;;;;;;0.67;0.67;;;18.50;99.90;;;;;;4964750;28;20480;-86
2022/05/24 10:45:24;;;;;;;1.33;0.70;;;18.80;96.20;;;;;;4967239;28;20449;-86
2022/05/24 10:47:56;;;;;;;0.50;0.50;;;18.80;97.00;;;;;;4967354;28;20533;-85
2022/05/24 10:50:29;;;;;;;1.90;1.80;;;18.50;95.60;;;;;;4964333;28;20451;-85
2022/05/24 10:53:01;;;;;;;1.00;0.70;;;18.10;96.10;;;;;;4965764;28;20516;-84
2022/05/24 10:55:33;;;;;;;0.90;0.80;;;17.70;95.80;;;;;;4966674;28;20463;-82
2022/05/24 10:58:03;;;;;;;0.53;0.53;;;17.50;96.90;;;;;;4963156;29;20458;-82
2022/05/24 11:01:45;;;;;;;0.70;0.70;;;17.70;96.20;;;;;;4963456;28;20657;-84
2022/05/24 11:10:31;;;;;;;0.80;0.77;;;17.60;97.20;;;;;;4964273;28;20870;-82
2022/05/24 11:13:02;;;;;;;0.87;0.60;;;17.70;95.50;;;;;;4962287;28;20658;-85
2022/05/24 11:15:34;;;;;;;0.67;0.67;;;17.90;96.60;;;;;;4962981;28;20522;-82
2022/05/24 11:18:03;;;;;;;0.70;0.70;;;18.10;96.80;;;;;;4960230;29;20471;-83
2022/05/24 11:20:35;;;;;;;2.47;0.73;;;18.30;95.40;;;;;;4960308;28;20462;-84
2022/05/24 11:23:12;;;;;;;3.23;1.17;;;18.40;95.60;;;;;;4964269;28;20451;-85
2022/05/24 11:25:45;;;;;;;1.53;1.00;;;18.60;94.60;;;;;;4962632;28;20459;-82
2022/05/24 11:28:23;;;;;;;0.67;0.67;;;18.40;95.10;;;;;;4961153;29;20827;-83
2022/05/24 11:30:51;;;;;;;0.70;0.70;;;18.50;95.10;;;;;;4962918;28;20458;-83
2022/05/24 11:44:08;;;;;;;1.40;0.67;;;19.60;94.00;;;;;;4879476;29;20489;-84
2022/05/24 11:57:14;;;;;;;1.70;0.70;;;20.70;93.30;;;;;;4886215;29;20515;-82
2022/05/24 11:59:54;;;;;;;0.67;0.67;;;21.30;92.80;;;;;;4904324;28;20449;-84
2022/05/24 12:09:34;;;;;;;0.70;0.70;;;20.10;93.10;;;;;;4961300;29;20804;-82
2022/05/24 12:25:51;;;;;;;1.80;0.70;;;20.40;91.00;;;;;;4917440;28;20431;-83
2022/05/24 12:29:14;;;;;;;0.60;0.50;;;21.00;92.70;;;;;;4961889;28;20462;-85
2022/05/24 12:34:46;;;;;;;1.17;1.10;;;21.70;86.70;;;;;;4964154;28;20525;-83
2022/05/24 12:57:19;;;;;;;1.00;0.83;;;24.20;70.00;;;;;;4889932;29;20495;-84
2022/05/24 13:00:14;;;;;;;0.50;0.50;;;24.20;68.60;;;;;;4873899;29;20473;-85
2022/05/24 13:02:59;;;;;;;0.70;0.60;;;24.80;69.50;;;;;;4962414;29;20868;-85
2022/05/24 13:05:57;;;;;;;0.67;0.67;;;24.70;63.30;;;;;;4969805;28;20458;-84
2022/05/24 13:11:56;;;;;;;0.83;0.83;;;24.90;62.90;;;;;;4967390;29;20476;-85
2022/05/24 13:41:07;;;;;;;0.87;0.70;;;19.70;78.50;;;;;;4846970;29;20991;-84
2022/05/24 13:43:38;;;;;;;1.43;0.70;;;20.00;78.70;;;;;;4850468;29;20461;-85
2022/05/24 13:46:20;;;;;;;0.77;0.60;;;20.90;80.20;;;;;;4889587;29;20480;-85
2022/05/24 13:48:54;;;;;;;2.07;0.90;;;22.10;74.40;;;;;;4887110;29;20467;-82
2022/05/24 13:51:28;;;;;;;0.77;0.60;;;22.80;72.50;;;;;;4947329;28;20458;-84
2022/05/24 14:04:23;;;;;;;1.53;1.10;;;21.90;75.70;;;;;;4904639;29;20433;-81
2022/05/24 14:07:08;;;;;;;0.83;0.80;;;22.30;73.00;;;;;;4960984;28;20472;-84
2022/05/24 14:13:07;;;;;;;1.03;0.80;;;21.50;74.60;;;;;;4962050;29;20613;-83
2022/05/24 14:18:51;;;;;;;0.90;0.90;;;21.20;75.70;;;;;;4941567;28;20525;-82
2022/05/24 14:21:58;;;;;;;1.33;0.63;;;21.40;73.60;;;;;;4962069;29;20465;-83
2022/05/24 14:24:28;;;;;;;0.73;0.73;;;21.80;72.30;;;;;;4970299;28;20443;-80
2022/05/24 14:26:59;;;;;;;1.10;1.10;;;22.40;71.10;;;;;;4963949;28;20465;-83
2022/05/24 14:29:27;;;;;;;1.00;1.00;;;22.80;71.30;;;;;;4962309;28;20492;-83
2022/05/24 14:31:54;;;;;;;0.60;0.60;;;22.70;68.40;;;;;;4958298;29;20556;-84
2022/05/24 14:34:23;;;;;;;1.67;0.80;;;22.20;72.00;;;;;;4962612;28;20522;-84
2022/05/24 14:36:52;;;;;;;0.93;0.93;;;22.00;72.70;;;;;;4962838;28;20619;-83
2022/05/24 14:39:19;;;;;;;1.33;0.60;;;22.10;71.50;;;;;;4963193;28;20457;-85
2022/05/24 14:41:48;;;;;;;1.00;0.90;;;22.10;71.00;;;;;;4963023;28;20458;-84
2022/05/24 14:44:19;;;;;;;0.90;0.90;;;21.60;73.00;;;;;;4962828;29;20548;-83
2022/05/24 14:46:45;;;;;;;1.00;1.00;;;21.30;74.70;;;;;;5019588;23;20876;-80
2022/05/24 14:49:14;;;;;;;1.97;1.03;;;21.00;76.90;;;;;;4966893;28;20459;-81
2022/05/24 14:51:47;;;;;;;2.40;0.90;;;21.00;77.70;;;;;;4975480;28;20458;-80
2022/05/24 14:54:14;;;;;;;2.83;1.00;;;21.00;78.50;;;;;;4974661;28;20462;-83
2022/05/24 14:59:39;;;;;;;0.90;0.90;;;21.40;81.40;;;;;;4958963;28;20882;-79
2022/05/24 15:02:07;;;;;;;1.77;0.90;;;21.50;77.30;;;;;;4958620;28;20454;-80
2022/05/24 15:04:34;;;;;;;3.07;1.13;;;21.60;80.10;;;;;;4969230;28;20458;-79
2022/05/24 15:15:24;;;;;;;1.10;0.90;;;22.50;78.70;;;;;;4964372;28;20958;-82
2022/05/24 15:17:52;;;;;;;1.83;0.60;;;22.60;75.90;;;;;;4963703;28;20484;-82
2022/05/24 15:20:20;;;;;;;0.87;0.87;;;22.30;72.60;;;;;;4963558;28;20992;-83
2022/05/24 15:22:50;;;;;;;1.47;1.00;;;22.00;75.30;;;;;;4963225;28;20467;-81
2022/05/24 15:25:21;;;;;;;1.50;1.30;;;21.80;77.10;;;;;;4964195;28;20469;-83
2022/05/24 15:27:50;;;;;;;3.97;1.20;;;21.50;76.80;;;;;;4964119;28;20536;-83
2022/05/24 15:30:17;;;;;;;1.10;0.97;;;21.10;76.90;;;;;;4963560;28;20461;-84
2022/05/24 15:32:43;;;;;;;0.93;0.80;;;20.80;78.70;;;;;;4960336;28;20487;-80
2022/05/24 15:35:10;;;;;;;0.70;0.63;;;20.10;78.00;;;;;;4961284;28;20456;-82
2022/05/24 15:37:37;;;;;;;1.00;1.00;;;20.00;79.90;;;;;;4960474;28;20562;-83
2022/05/24 15:40:05;;;;;;;1.50;1.40;;;19.90;81.30;;;;;;4961930;28;20461;-81
2022/05/24 15:42:33;;;;;;;1.67;1.20;;;19.70;81.90;;;;;;4953740;28;20803;-82
2022/05/24 15:45:02;;;;;;;3.00;1.10;;;20.00;83.70;;;;;;4941909;29;20481;-81
2022/05/24 15:47:29;;;;;;;1.00;1.00;;;20.10;83.30;;;;;;4940581;28;20490;-82
2022/05/24 15:49:58;;;;;;;1.03;1.00;;;20.30;83.40;;;;;;4958330;29;20453;-83
2022/05/24 15:52:24;;;;;;;1.10;0.87;;;20.40;83.30;;;;;;4962685;28;20481;-82
2022/05/24 15:54:51;;;;;;;1.07;0.60;;;20.40;83.50;;;;;;4963698;28;20459;-81
2022/05/24 15:57:19;;;;;;;1.27;1.23;;;20.40;83.10;;;;;;4965482;28;20483;-80
2022/05/24 15:59:47;;;;;;;0.97;0.97;;;20.30;82.30;;;;;;4962538;28;20457;-79
2022/05/24 16:02:15;;;;;;;1.40;1.30;;;20.40;83.40;;;;;;4963090;28;20537;-81
2022/05/24 16:10:14;;;;;;;3.33;1.27;;;20.50;81.30;;;;;;4930449;29;20468;-82
2022/05/24 16:12:45;;;;;;;0.70;0.70;;;20.40;83.00;;;;;;4959572;29;20489;-81
2022/05/24 16:15:16;;;;;;;1.70;0.93;;;20.40;83.20;;;;;;4957873;28;20519;-81
2022/05/24 16:17:46;;;;;;;1.43;1.33;;;20.20;81.70;;;;;;4959236;28;20477;-82
2022/05/24 16:20:13;;;;;;;2.07;1.10;;;20.10;81.80;;;;;;4958887;28;20465;-82
2022/05/24 16:22:43;;;;;;;0.73;0.73;;;20.00;81.60;;;;;;4959816;28;20453;-81
2022/05/24 16:25:11;;;;;;;0.90;0.70;;;19.80;81.70;;;;;;4958833;28;20471;-81
2022/05/24 16:27:38;;;;;;;1.53;1.17;;;19.70;81.60;;;;;;4958605;28;20487;-82
2022/05/24 16:30:06;;;;;;;2.10;1.97;;;19.70;82.20;;;;;;4958984;28;20460;-82
2022/05/24 16:32:36;;;;;;;0.83;0.83;;;19.50;81.10;;;;;;4958803;28;20484;-81
2022/05/24 16:35:05;;;;;;;1.07;1.07;;;19.30;81.70;;;;;;4959478;28;20459;-81
2022/05/24 16:37:31;;;;;;;0.80;0.80;;;19.30;82.80;;;;;;4958505;28;20487;-81
2022/05/24 16:39:58;;;;;;;2.07;1.00;;;19.20;82.50;;;;;;4959360;28;20459;-83
2022/05/24 16:42:25;;;;;;;0.87;0.87;;;19.10;83.40;;;;;;4958616;28;20828;-81
2022/05/24 16:44:51;;;;;;;1.07;1.00;;;19.10;84.40;;;;;;4958706;28;20456;-81
2022/05/24 16:47:18;;;;;;;0.90;0.80;;;19.10;84.60;;;;;;4959414;28;20496;-82
2022/05/24 16:49:45;;;;;;;0.83;0.83;;;19.20;83.90;;;;;;4960122;28;20965;-82
2022/05/24 16:52:13;;;;;;;0.87;0.80;;;19.00;83.70;;;;;;4957103;28;20452;-83
2022/05/24 17:00:35;;;;;;;0.80;0.80;;;19.00;84.50;;;;;;4962302;29;20502;-84
2022/05/24 17:03:03;;;;;;;0.60;0.60;;;19.30;84.40;;;;;;4943855;29;20460;-83
2022/05/24 17:05:32;;;;;;;0.90;0.90;;;19.80;84.30;;;;;;4949848;29;20458;-84
2022/05/24 17:08:00;;;;;;;1.07;0.90;;;20.20;83.10;;;;;;4946797;29;20532;-80
2022/05/24 17:10:31;;;;;;;1.03;0.93;;;20.20;81.50;;;;;;4961362;28;20453;-84
2022/05/24 17:12:58;;;;;;;2.43;0.87;;;20.30;80.20;;;;;;4955198;29;20493;-82
2022/05/24 17:15:26;;;;;;;1.90;1.37;;;20.10;80.20;;;;;;4970402;28;20458;-83
2022/05/24 17:17:53;;;;;;;1.33;1.03;;;20.10;81.90;;;;;;4971423;28;20477;-85
2022/05/24 17:20:22;;;;;;;1.10;0.90;;;19.90;80.40;;;;;;4964250;28;20456;-84
2022/05/24 17:22:49;;;;;;;1.10;1.00;;;19.80;80.80;;;;;;4962860;28;20452;-83
2022/05/24 17:25:17;;;;;;;0.80;0.80;;;19.70;80.80;;;;;;4962327;28;20463;-82
2022/05/24 17:27:44;;;;;;;0.80;0.80;;;19.70;81.60;;;;;;4962855;28;20472;-82
2022/05/24 17:30:13;;;;;;;0.80;0.80;;;19.90;82.20;;;;;;4962500;28;20471;-82
2022/05/24 17:32:46;;;;;;;0.80;0.80;;;19.80;81.50;;;;;;4963221;28;20491;-82
2022/05/24 17:35:13;;;;;;;1.27;0.87;;;19.90;82.50;;;;;;4962853;28;20520;-82
2022/05/24 17:37:40;;;;;;;1.20;1.10;;;20.00;82.90;;;;;;4963101;28;20850;-82
2022/05/24 17:40:09;;;;;;;2.40;1.03;;;20.10;83.30;;;;;;4962665;28;20574;-79
2022/05/24 17:42:40;;;;;;;3.13;2.00;;;20.20;83.90;;;;;;4964186;28;20817;-82
2022/05/24 17:45:09;;;;;;;1.07;1.00;;;20.00;84.10;;;;;;4964246;28;20458;-80
2022/05/24 17:47:36;;;;;;;1.43;1.10;;;19.80;83.70;;;;;;4963029;28;20875;-82
2022/05/24 17:50:04;;;;;;;1.43;1.17;;;19.80;84.20;;;;;;4964942;28;20461;-83
2022/05/24 17:52:31;;;;;;;1.30;1.20;;;19.90;85.50;;;;;;4963631;28;20460;-80
2022/05/24 17:54:58;;;;;;;0.83;0.83;;;19.70;84.60;;;;;;4960653;28;20457;-83
2022/05/24 17:57:24;;;;;;;1.07;0.90;;;19.40;84.00;;;;;;4961210;28;20488;-82
2022/05/24 17:59:53;;;;;;;0.90;0.90;;;19.30;84.60;;;;;;4963069;28;20462;-80
2022/05/24 18:02:19;;;;;;;1.00;0.70;;;18.90;84.30;;;;;;4952816;29;20824;-80
2022/05/24 18:04:46;;;;;;;2.80;2.10;;;18.70;84.00;;;;;;4964119;28;20808;-84
2022/05/24 18:07:16;;;;;;;1.03;1.03;;;18.40;84.40;;;;;;4963723;28;20483;-85
2022/05/24 18:09:42;;;;;;;2.20;0.97;;;18.20;85.20;;;;;;4962848;28;20465;-84
2022/05/24 18:12:10;;;;;;;1.83;0.83;;;18.20;86.50;;;;;;4963002;28;20460;-82
2022/05/24 18:14:39;;;;;;;2.00;1.07;;;18.00;85.90;;;;;;4962500;28;20496;-85
2022/05/24 18:17:07;;;;;;;0.97;0.80;;;18.00;87.80;;;;;;4961941;28;20483;-84
2022/05/24 18:19:35;;;;;;;0.70;0.70;;;17.90;88.50;;;;;;4962454;28;20459;-84
2022/05/24 18:22:05;;;;;;;1.47;1.17;;;17.90;88.00;;;;;;4960307;28;20459;-84
2022/05/24 18:24:37;;;;;;;0.60;0.60;;;17.90;88.10;;;;;;4960661;28;20487;-84
2022/05/24 18:35:47;;;;;;;1.63;0.80;;;17.60;88.20;;;;;;4920480;29;20427;-82
2022/05/24 18:38:14;;;;;;;1.43;1.40;;;17.60;88.80;;;;;;4919046;29;20475;-82
2022/05/24 18:40:41;;;;;;;0.70;0.70;;;17.50;89.30;;;;;;4924690;29;20562;-82
2022/05/24 18:43:07;;;;;;;0.60;0.60;;;17.30;88.80;;;;;;4959331;28;20458;-82
2022/05/24 18:45:35;;;;;;;1.10;0.97;;;17.20;89.10;;;;;;4959576;28;20458;-82
2022/05/24 18:48:06;;;;;;;1.20;0.83;;;17.20;90.10;;;;;;4959554;28;20478;-82
2022/05/24 18:50:33;;;;;;;0.80;0.80;;;17.20;90.10;;;;;;4959689;28;20455;-82
2022/05/24 18:53:00;;;;;;;2.00;1.10;;;17.20;90.30;;;;;;4959845;28;20494;-82
2022/05/24 18:55:27;;;;;;;1.50;1.30;;;17.20;90.30;;;;;;4958965;28;20458;-82
2022/05/24 18:57:54;;;;;;;4.33;1.13;;;17.10;90.20;;;;;;4959478;28;20488;-83
2022/05/24 19:00:22;;;;;;;0.73;0.70;;;17.00;90.50;;;;;;4959030;28;20494;-82
2022/05/24 19:02:49;;;;;;;1.33;0.97;;;16.90;90.50;;;;;;4957026;29;20459;-81
2022/05/24 19:05:17;;;;;;;1.80;1.00;;;16.90;90.90;;;;;;4955410;28;20460;-82
2022/05/24 19:07:44;;;;;;;2.10;1.07;;;16.90;91.10;;;;;;4959405;28;20474;-81
2022/05/24 19:10:11;;;;;;;3.20;1.27;;;16.90;91.10;;;;;;4958622;28;20460;-82
2022/05/24 19:12:37;;;;;;;1.73;1.13;;;16.90;91.20;;;;;;4958166;29;20818;-81
2022/05/24 19:15:05;;;;;;;0.90;0.77;;;16.90;91.30;;;;;;4958951;28;20496;-81
2022/05/24 19:17:33;;;;;;;0.90;0.90;;;16.80;90.90;;;;;;4958373;28;20891;-81
2022/05/24 19:20:01;;;;;;;1.50;1.00;;;16.70;90.80;;;;;;4958283;28;21059;-81
2022/05/24 19:22:29;;;;;;;1.57;0.83;;;16.70;91.10;;;;;;4957847;28;20454;-81
2022/05/24 19:24:56;;;;;;;2.20;0.87;;;16.70;91.10;;;;;;4958545;28;20459;-81
2022/05/24 19:27:25;;;;;;;2.70;1.60;;;16.80;91.10;;;;;;4958305;28;20486;-81
2022/05/24 19:29:54;;;;;;;1.37;0.90;;;16.90;91.00;;;;;;4958331;28;20483;-81
2022/05/24 19:32:23;;;;;;;0.77;0.70;;;17.00;91.50;;;;;;4963370;28;20829;-80
2022/05/24 19:34:51;;;;;;;1.33;1.23;;;16.80;91.90;;;;;;4972753;28;20494;-81
2022/05/24 19:37:20;;;;;;;1.27;1.23;;;16.60;92.20;;;;;;4964725;28;20485;-81
2022/05/24 19:42:35;;;;;;;0.70;0.70;;;16.40;92.70;;;;;;4958751;29;20432;-81
2022/05/24 19:45:03;;;;;;;1.13;0.80;;;16.40;92.20;;;;;;4957857;28;20470;-81
2022/05/24 19:47:30;;;;;;;0.80;0.80;;;16.30;92.30;;;;;;4957599;28;20482;-82
2022/05/24 19:49:56;;;;;;;0.83;0.83;;;16.40;92.60;;;;;;4957602;28;20457;-81
2022/05/24 19:52:25;;;;;;;0.90;0.90;;;16.30;92.60;;;;;;4944822;28;20458;-81
2022/05/24 19:54:53;;;;;;;1.57;1.00;;;16.20;92.80;;;;;;4951242;28;20490;-81
2022/05/24 19:57:22;;;;;;;1.40;1.30;;;16.20;93.30;;;;;;4958795;28;20843;-82
2022/05/24 19:59:50;;;;;;;0.90;0.90;;;16.20;93.20;;;;;;4958248;28;20454;-81
2022/05/24 20:02:17;;;;;;;0.80;0.80;;;16.20;93.50;;;;;;4958090;28;20987;-81
2022/05/24 20:04:43;;;;;;;1.10;1.00;;;16.10;93.40;;;;;;4957552;28;20971;-81
2022/05/24 20:07:12;;;;;;;2.40;0.60;;;16.10;93.80;;;;;;4957433;28;20480;-81
2022/05/24 20:09:39;;;;;;;1.93;0.87;;;16.00;93.60;;;;;;4958273;28;20455;-82
2022/05/24 20:12:09;;;;;;;2.73;0.90;;;16.00;93.40;;;;;;4957691;28;20458;-81
2022/05/24 20:14:37;;;;;;;1.17;1.10;;;16.00;93.20;;;;;;4957958;28;20487;-81
2022/05/24 20:17:07;;;;;;;0.70;0.70;;;15.90;92.90;;;;;;4957141;28;20481;-81
2022/05/24 20:19:35;;;;;;;0.80;0.73;;;15.80;92.80;;;;;;4957064;28;20461;-81
2022/05/24 20:22:02;;;;;;;1.40;1.20;;;15.80;93.10;;;;;;4957599;28;20456;-81
2022/05/24 20:24:33;;;;;;;0.80;0.80;;;15.70;92.90;;;;;;4957500;28;20545;-81
2022/05/24 20:27:01;;;;;;;1.67;0.70;;;15.70;93.10;;;;;;4958089;28;20898;-81
2022/05/24 20:29:31;;;;;;;2.07;1.00;;;15.70;93.30;;;;;;4957178;28;20874;-81
2022/05/24 20:31:58;;;;;;;0.70;0.70;;;15.60;93.50;;;;;;4958313;28;20462;-81
2022/05/24 20:34:25;;;;;;;1.43;0.60;;;15.60;93.80;;;;;;4961348;29;20489;-81
2022/05/24 20:36:52;;;;;;;0.80;0.80;;;15.60;94.00;;;;;;4961526;28;20481;-81
2022/05/24 20:39:18;;;;;;;1.03;0.93;;;15.60;94.30;;;;;;4961370;28;20463;-81
2022/05/24 20:41:45;;;;;;;1.30;1.17;;;15.50;94.30;;;;;;4961802;28;20459;-81
2022/05/24 20:44:12;;;;;;;0.70;0.70;;;15.50;94.60;;;;;;4960920;28;20450;-81
2022/05/24 20:46:40;;;;;;;1.73;0.83;;;15.40;94.70;;;;;;4982919;23;20492;-79
2022/05/24 20:49:07;;;;;;;1.30;1.20;;;15.40;95.00;;;;;;4963222;29;20464;-79
2022/05/24 20:51:34;;;;;;;3.73;1.10;;;15.40;95.10;;;;;;4961846;29;20469;-79
2022/05/24 20:54:01;;;;;;;1.07;0.93;;;15.30;95.30;;;;;;4949332;29;20495;-78
2022/05/24 20:56:28;;;;;;;1.33;1.30;;;15.30;95.40;;;;;;4953835;28;20488;-79
2022/05/24 20:58:56;;;;;;;1.20;0.80;;;15.20;95.50;;;;;;4967367;29;20457;-79
2022/05/24 21:01:24;;;;;;;0.87;0.87;;;15.40;95.50;;;;;;4944168;29;20454;-79
2022/05/24 21:03:52;;;;;;;1.23;1.23;;;15.50;95.10;;;;;;4947414;29;20449;-79
2022/05/24 21:06:20;;;;;;;1.60;1.30;;;15.60;95.10;;;;;;4948746;29;20454;-79
2022/05/24 21:08:47;;;;;;;0.90;0.90;;;15.70;95.00;;;;;;4948481;29;20454;-79
2022/05/24 21:11:13;;;;;;;0.70;0.70;;;15.70;95.20;;;;;;4947721;29;20449;-79
2022/05/24 21:13:40;;;;;;;0.83;0.83;;;15.50;95.60;;;;;;4948155;29;20470;-79
2022/05/24 21:16:07;;;;;;;1.20;1.20;;;15.30;95.90;;;;;;4945646;29;20456;-79
2022/05/24 21:18:34;;;;;;;0.80;0.80;;;15.20;96.40;;;;;;4945703;29;20524;-78
2022/05/24 21:21:01;;;;;;;1.17;0.90;;;15.20;96.80;;;;;;4949060;29;20453;-79
2022/05/24 21:23:29;;;;;;;1.30;1.20;;;15.20;97.10;;;;;;4949715;29;20449;-79
2022/05/24 21:28:39;;;;;;;1.03;0.77;;;15.20;97.00;;;;;;4920829;29;20455;-78
2022/05/24 21:31:06;;;;;;;2.00;0.90;;;15.10;96.80;;;;;;4941054;29;20826;-78
2022/05/24 21:33:34;;;;;;;1.07;1.00;;;15.20;97.10;;;;;;4938098;29;20460;-78
2022/05/24 21:36:03;;;;;;;1.63;0.80;;;15.10;97.40;;;;;;4933711;29;20477;-78
2022/05/24 21:38:33;;;;;;;1.00;0.87;;;15.10;97.60;;;;;;4937014;29;20482;-79
2022/05/24 21:41:00;;;;;;;0.67;0.67;;;15.00;97.80;;;;;;4936795;29;20452;-79
2022/05/24 21:43:27;;;;;;;0.77;0.77;;;14.90;98.20;;;;;;4933960;29;20489;-78
2022/05/24 21:45:55;;;;;;;0.70;0.70;;;14.90;98.40;;;;;;4938465;29;20501;-78
2022/05/24 21:48:23;;;;;;;0.67;0.67;;;14.90;98.40;;;;;;4942851;29;20491;-77
2022/05/24 21:50:54;;;;;;;1.13;0.90;;;14.80;98.40;;;;;;4933105;29;20455;-77
2022/05/24 21:53:23;;;;;;;1.37;0.87;;;14.80;98.80;;;;;;4949842;29;20460;-78
2022/05/24 21:55:51;;;;;;;1.83;0.60;;;14.70;98.90;;;;;;4965590;29;20499;-77
2022/05/24 21:58:19;;;;;;;1.57;0.83;;;14.70;99.00;;;;;;4953965;28;20473;-77
2022/05/24 22:00:56;;;;;;;2.63;1.00;;;14.70;99.00;;;;;;4944695;29;20466;-78
2022/05/24 22:03:26;;;;;;;1.00;1.00;;;14.70;99.20;;;;;;4956675;29;20972;-79
2022/05/24 22:05:53;;;;;;;0.90;0.87;;;14.70;99.10;;;;;;4960890;29;20444;-79
2022/05/24 22:08:20;;;;;;;0.90;0.90;;;14.80;99.20;;;;;;4952313;28;20847;-79
2022/05/24 22:10:47;;;;;;;0.67;0.67;;;14.70;99.40;;;;;;4944466;29;20458;-78
2022/05/24 22:13:17;;;;;;;1.20;1.10;;;14.70;99.60;;;;;;4969380;28;20456;-79
2022/05/24 22:15:44;;;;;;;1.67;1.23;;;14.80;99.60;;;;;;4941827;29;20576;-79
2022/05/24 22:18:11;;;;;;;2.53;1.00;;;14.90;99.40;;;;;;4938822;29;20505;-80
2022/05/24 22:20:38;;;;;;;1.67;1.20;;;14.90;99.20;;;;;;4953659;29;20464;-80
2022/05/24 22:23:05;;;;;;;1.33;1.10;;;15.00;99.10;;;;;;4957734;29;20460;-80
2022/05/24 22:25:33;;;;;;;2.03;1.50;;;15.10;99.20;;;;;;4944072;29;20816;-80
2022/05/24 22:28:00;;;;;;;1.23;1.00;;;15.10;99.20;;;;;;4951078;29;20487;-80
2022/05/24 22:30:28;;;;;;;1.03;1.00;;;15.10;99.30;;;;;;4957656;29;20451;-80
2022/05/24 22:32:55;;;;;;;3.00;1.50;;;15.10;99.50;;;;;;4945590;29;20465;-80
2022/05/24 22:35:22;;;;;;;1.67;1.00;;;15.20;99.70;;;;;;4938352;29;20492;-80
2022/05/24 22:37:49;;;;;;;2.00;1.33;;;15.20;99.70;;;;;;4948406;29;20831;-80
2022/05/24 22:40:17;;;;;;;0.80;0.80;;;15.20;99.70;;;;;;4957325;29;20453;-80
2022/05/24 22:42:44;;;;;;;1.50;1.33;;;15.30;99.70;;;;;;4938989;29;20458;-80
2022/05/24 22:45:13;;;;;;;0.80;0.80;;;15.30;99.80;;;;;;4938782;29;20456;-80
2022/05/24 22:47:42;;;;;;;1.17;1.17;;;15.40;99.90;;;;;;4960535;28;20931;-78
2022/05/24 22:50:14;;;;;;;1.10;1.00;;;15.50;99.80;;;;;;4963348;29;20948;-78
2022/05/24 22:52:42;;;;;;;1.33;0.90;;;15.50;99.60;;;;;;4946725;28;20517;-77
2022/05/24 22:55:11;;;;;;;1.40;0.90;;;15.60;98.80;;;;;;4945173;29;20728;-78
2022/05/24 22:57:39;;;;;;;1.20;1.20;;;15.60;98.80;;;;;;4960996;28;20475;-79
2022/05/24 23:00:08;;;;;;;1.90;1.00;;;15.60;99.00;;;;;;4957480;29;20453;-79
2022/05/24 23:02:34;;;;;;;1.40;1.30;;;15.70;99.10;;;;;;4954342;28;20446;-79
2022/05/24 23:05:03;;;;;;;0.77;0.77;;;15.70;99.30;;;;;;4951789;29;20469;-79
2022/05/24 23:07:29;;;;;;;1.03;1.00;;;15.80;99.50;;;;;;4964167;28;20473;-79
2022/05/24 23:09:56;;;;;;;0.93;0.93;;;15.80;99.50;;;;;;4958691;29;20458;-78
2022/05/24 23:12:23;;;;;;;0.87;0.87;;;15.70;99.70;;;;;;4944695;29;20469;-78
2022/05/24 23:14:50;;;;;;;0.90;0.90;;;15.40;99.90;;;;;;4948272;29;20487;-78
2022/05/24 23:17:17;;;;;;;1.23;0.90;;;15.20;99.90;;;;;;4964374;28;20480;-79
2022/05/24 23:19:43;;;;;;;1.33;1.23;;;15.20;99.90;;;;;;4961111;29;20456;-78
2022/05/24 23:22:11;;;;;;;0.80;0.80;;;15.20;99.90;;;;;;4944765;29;20458;-79
2022/05/24 23:24:38;;;;;;;0.90;0.90;;;15.30;99.70;;;;;;4962523;29;20456;-79
2022/05/24 23:27:05;;;;;;;0.90;0.90;;;15.40;99.90;;;;;;4963651;28;20482;-78
2022/05/24 23:29:33;;;;;;;1.03;1.03;;;15.40;99.90;;;;;;4943780;29;20466;-78